createdAt,value
2018-09-30T00:03:33.296Z,11.57
2018-09-30T00:06:32.280Z,12.70
2018-09-30T00:09:23.382Z,9.33
2018-09-30T00:20:56.226Z,13.57
2018-09-30T00:41:45.537Z,8.57
2018-09-30T00:47:45.442Z,12.73
2018-09-30T00:50:19.740Z,10.82
2018-09-30T00:55:39.911Z,11.13
2018-09-30T01:01:05.495Z,9.50
2018-09-30T01:12:57.730Z,8.30
2018-09-30T01:15:46.081Z,7.40
2018-09-30T01:18:36.640Z,9.07
2018-09-30T01:21:37.172Z,13.70
2018-09-30T01:24:28.891Z,9.33
2018-09-30T01:27:16.945Z,12.83
2018-09-30T01:30:06.122Z,10.73
2018-09-30T01:32:39.444Z,8.70
2018-09-30T01:38:35.268Z,11.03
2018-09-30T01:41:08.859Z,8.07
2018-09-30T01:44:01.960Z,8.68
2018-09-30T01:46:36.304Z,8.80
2018-09-30T01:55:12.350Z,9.83
2018-09-30T01:58:01.663Z,6.93
2018-09-30T02:00:56.166Z,9.85
2018-09-30T02:03:43.238Z,9.00
2018-09-30T02:06:33.800Z,9.00
2018-09-30T02:09:22.470Z,9.37
2018-09-30T02:12:13.536Z,10.23
2018-09-30T02:21:11.215Z,8.03
2018-09-30T02:24:01.961Z,7.17
2018-09-30T02:30:06.858Z,6.90
2018-09-30T02:33:12.490Z,9.83
2018-09-30T02:36:06.271Z,7.90
2018-09-30T02:42:08.751Z,7.72
2018-09-30T02:45:03.759Z,9.03
2018-09-30T02:59:37.316Z,14.87
2018-09-30T03:02:16.205Z,12.47
2018-09-30T03:04:54.132Z,9.50
2018-09-30T03:07:44.094Z,8.83
2018-09-30T03:10:39.776Z,8.80
2018-09-30T03:13:27.578Z,9.33
2018-09-30T03:16:14.602Z,7.63
2018-09-30T03:19:09.583Z,10.53
2018-09-30T03:21:56.788Z,11.85
2018-09-30T03:24:44.755Z,7.90
2018-09-30T03:27:33.022Z,4.87
2018-09-30T03:30:21.306Z,9.23
2018-09-30T03:33:17.074Z,7.23
2018-09-30T03:39:10.413Z,6.07
2018-09-30T03:41:57.791Z,8.60
2018-09-30T03:44:45.359Z,10.30
2018-09-30T03:47:40.314Z,7.83
2018-09-30T03:50:09.040Z,10.07
2018-09-30T03:52:56.151Z,8.83
2018-09-30T03:55:43.544Z,9.03
2018-09-30T03:58:18.043Z,10.83
2018-09-30T04:00:46.817Z,8.20
2018-09-30T04:03:29.085Z,10.10
2018-09-30T04:06:16.663Z,8.80
2018-09-30T04:12:17.339Z,8.23
2018-09-30T04:15:06.599Z,10.90
2018-09-30T04:17:54.016Z,9.17
2018-09-30T04:20:31.550Z,5.77
2018-09-30T04:26:25.190Z,9.27
2018-09-30T04:29:09.316Z,10.40
2018-09-30T04:31:57.791Z,9.57
2018-09-30T04:34:52.883Z,11.87
2018-09-30T04:37:37.249Z,6.43
2018-09-30T04:40:08.738Z,6.47
2018-09-30T04:45:44.933Z,10.47
2018-09-30T04:51:13.088Z,10.20
2018-09-30T04:53:41.697Z,6.90
2018-09-30T04:56:37.703Z,8.60
2018-09-30T04:59:24.789Z,7.83
2018-09-30T05:02:12.252Z,7.97
2018-09-30T05:04:59.471Z,6.37
2018-09-30T05:11:00.609Z,8.20
2018-09-30T05:13:50.206Z,7.03
2018-09-30T05:16:45.176Z,10.47
2018-09-30T05:19:14.865Z,9.70
2018-09-30T05:21:43.490Z,8.93
2018-09-30T05:27:22.875Z,9.60
2018-09-30T05:30:10.395Z,8.87
2018-09-30T05:41:59.087Z,8.93
2018-09-30T05:53:46.989Z,8.90
2018-09-30T05:56:36.278Z,7.43
2018-09-30T05:59:25.513Z,8.38
2018-09-30T06:04:57.805Z,6.47
2018-09-30T06:13:28.182Z,6.30
2018-09-30T06:19:03.177Z,11.17
2018-09-30T06:27:25.849Z,6.83
2018-09-30T06:30:13.795Z,10.00
2018-09-30T06:35:34.933Z,7.97
2018-09-30T06:47:49.592Z,12.23
2018-09-30T06:50:37.290Z,9.00
2018-09-30T06:53:12.204Z,11.30
2018-09-30T06:55:59.205Z,8.50
2018-09-30T06:58:29.267Z,8.77
2018-09-30T07:00:58.316Z,14.97
2018-09-30T07:03:27.100Z,17.03
2018-09-30T07:06:15.014Z,9.07
2018-09-30T07:09:02.144Z,9.63
2018-09-30T07:11:49.392Z,7.63
2018-09-30T07:14:36.959Z,7.60
2018-09-30T07:17:24.073Z,8.70
2018-09-30T07:20:11.148Z,12.47
2018-09-30T07:26:06.226Z,7.00
2018-09-30T07:28:54.843Z,5.17
2018-09-30T07:34:50.000Z,8.27
2018-09-30T07:37:37.171Z,11.37
2018-09-30T07:40:25.091Z,8.57
2018-09-30T07:43:13.174Z,7.10
2018-09-30T07:46:00.628Z,7.00
2018-09-30T07:48:48.611Z,9.55
2018-09-30T07:51:17.813Z,8.80
2018-09-30T07:54:05.503Z,5.28
2018-09-30T07:56:52.819Z,7.68
2018-09-30T07:59:30.581Z,7.00
2018-09-30T08:02:17.837Z,8.77
2018-09-30T08:05:05.411Z,11.80
2018-09-30T08:07:52.478Z,5.43
2018-09-30T08:10:39.780Z,8.20
2018-09-30T08:13:27.098Z,8.50
2018-09-30T08:16:14.643Z,6.05
2018-09-30T08:18:49.274Z,12.20
2018-09-30T08:21:36.534Z,7.68
2018-09-30T08:24:24.152Z,6.82
2018-09-30T08:29:59.206Z,6.22
2018-09-30T08:32:46.530Z,12.98
2018-09-30T08:35:33.752Z,6.20
2018-09-30T08:38:11.551Z,5.43
2018-09-30T08:44:05.014Z,7.07
2018-09-30T08:53:05.014Z,5.82
2018-09-30T08:55:33.736Z,6.90
2018-09-30T09:01:27.729Z,6.32
2018-09-30T09:04:15.050Z,7.15
2018-09-30T09:07:03.932Z,4.30
2018-09-30T09:09:51.550Z,6.97
2018-09-30T09:12:20.444Z,4.37
2018-09-30T09:15:08.911Z,4.28
2018-09-30T09:17:56.397Z,4.03
2018-09-30T09:20:44.886Z,3.80
2018-09-30T09:23:32.258Z,5.37
2018-09-30T09:26:19.656Z,4.50
2018-09-30T09:32:14.940Z,5.40
2018-09-30T09:44:23.966Z,4.43
2018-09-30T09:47:11.709Z,5.20
2018-09-30T09:49:58.850Z,5.53
2018-09-30T09:55:35.360Z,3.78
2018-09-30T10:01:29.088Z,5.28
2018-09-30T10:07:24.482Z,4.43
2018-09-30T10:09:53.133Z,4.45
2018-09-30T10:16:02.094Z,4.90
2018-09-30T10:18:49.181Z,3.10
2018-09-30T10:24:27.849Z,3.67
2018-09-30T10:27:15.052Z,3.50
2018-09-30T10:29:43.716Z,1.95
2018-09-30T10:32:31.214Z,3.23
2018-09-30T10:41:30.498Z,4.18
2018-09-30T10:47:25.218Z,2.03
2018-09-30T11:02:38.044Z,2.97
2018-09-30T11:05:26.036Z,5.68
2018-09-30T11:08:21.219Z,2.20
2018-09-30T11:11:11.100Z,3.57
2018-09-30T11:23:03.395Z,4.22
2018-09-30T11:25:50.268Z,1.90
2018-09-30T11:31:30.778Z,2.03
2018-09-30T11:34:18.351Z,3.08
2018-09-30T11:37:06.137Z,2.67
2018-09-30T11:39:56.964Z,2.00
2018-09-30T11:42:41.159Z,8.10
2018-09-30T11:54:25.967Z,4.05
2018-09-30T12:03:51.975Z,3.17
2018-09-30T12:06:39.822Z,3.33
2018-09-30T12:15:23.167Z,3.80
2018-09-30T12:18:05.358Z,2.95
2018-09-30T12:20:49.882Z,4.25
2018-09-30T12:23:38.094Z,3.03
2018-09-30T12:26:06.838Z,4.47
2018-09-30T12:28:35.917Z,2.47
2018-09-30T12:31:23.064Z,2.15
2018-09-30T12:34:13.454Z,2.92
2018-09-30T12:37:01.571Z,2.40
2018-09-30T12:39:49.209Z,3.62
2018-09-30T12:45:40.052Z,4.10
2018-09-30T12:48:27.557Z,3.58
2018-09-30T12:51:19.020Z,3.00
2018-09-30T12:54:06.755Z,6.62
2018-09-30T12:56:38.793Z,2.87
2018-09-30T12:59:26.400Z,4.22
2018-09-30T13:02:14.848Z,3.95
2018-09-30T13:11:02.204Z,2.50
2018-09-30T13:13:52.171Z,3.95
2018-09-30T13:16:41.817Z,2.90
2018-09-30T13:19:29.165Z,4.93
2018-09-30T13:22:19.659Z,4.07
2018-09-30T13:24:59.790Z,2.85
2018-09-30T13:27:47.413Z,3.40
2018-09-30T13:30:19.083Z,3.55
2018-09-30T13:33:07.941Z,2.70
2018-09-30T13:51:45.904Z,2.55
2018-09-30T13:54:24.090Z,5.18
2018-09-30T13:57:11.626Z,3.08
2018-09-30T13:59:58.987Z,2.25
2018-09-30T14:08:59.539Z,6.32
2018-09-30T14:11:51.668Z,3.58
2018-09-30T14:14:39.542Z,2.83
2018-09-30T14:26:48.781Z,3.53
2018-09-30T14:29:38.240Z,3.90
2018-09-30T14:32:05.440Z,2.45
2018-09-30T14:37:59.701Z,3.20
2018-09-30T14:40:47.394Z,2.78
2018-09-30T14:43:35.066Z,3.55
2018-09-30T14:49:36.909Z,2.53
2018-09-30T14:52:24.568Z,3.90
2018-09-30T14:55:12.134Z,3.42
2018-09-30T14:58:03.598Z,2.67
2018-09-30T15:00:51.389Z,4.30
2018-09-30T15:03:38.939Z,2.70
2018-09-30T15:06:26.515Z,5.05
2018-09-30T15:15:36.222Z,2.25
2018-09-30T15:18:26.439Z,3.90
2018-09-30T15:21:14.580Z,3.33
2018-09-30T15:24:02.329Z,1.87
2018-09-30T15:26:50.989Z,2.80
2018-09-30T15:29:38.279Z,2.55
2018-09-30T15:32:10.812Z,3.83
2018-09-30T15:35:00.298Z,4.07
2018-09-30T15:37:47.672Z,4.12
2018-09-30T15:43:41.668Z,1.45
2018-09-30T15:46:10.597Z,2.12
2018-09-30T15:48:58.320Z,2.92
2018-09-30T15:51:45.936Z,3.92
2018-09-30T16:03:27.313Z,2.30
2018-09-30T16:06:15.605Z,2.50
2018-09-30T16:09:10.632Z,2.12
2018-09-30T16:11:57.664Z,1.80
2018-09-30T16:14:52.825Z,3.40
2018-09-30T16:17:39.909Z,4.40
2018-09-30T16:23:15.706Z,3.47
2018-09-30T16:26:06.872Z,1.33
2018-09-30T16:28:54.276Z,4.35
2018-09-30T16:31:41.084Z,2.87
2018-09-30T16:34:28.124Z,2.80
2018-09-30T16:37:15.585Z,6.15
2018-09-30T16:39:44.367Z,3.37
2018-09-30T16:42:32.864Z,2.85
2018-09-30T16:45:20.248Z,3.50
2018-09-30T16:47:50.584Z,3.85
2018-09-30T16:53:45.172Z,2.90
2018-09-30T16:56:32.124Z,5.03
2018-09-30T16:59:19.505Z,3.00
2018-09-30T17:02:14.718Z,5.15
2018-09-30T17:05:02.284Z,5.85
2018-09-30T17:07:50.898Z,5.70
2018-09-30T17:10:39.725Z,4.65
2018-09-30T17:16:14.801Z,3.97
2018-09-30T17:28:27.943Z,4.32
2018-09-30T17:34:04.486Z,4.97
2018-09-30T17:37:00.758Z,8.35
2018-09-30T17:39:48.078Z,4.32
2018-09-30T17:42:36.707Z,7.22
2018-09-30T17:45:23.844Z,5.05
2018-09-30T17:47:56.310Z,4.57
2018-09-30T17:50:41.724Z,4.20
2018-09-30T17:53:29.864Z,7.25
2018-09-30T17:56:01.746Z,5.80
2018-09-30T17:58:57.012Z,7.20
2018-09-30T18:04:41.107Z,10.73
2018-09-30T18:07:28.658Z,8.50
2018-09-30T18:10:15.972Z,9.87
2018-09-30T18:13:06.718Z,9.40
2018-09-30T18:15:51.608Z,10.17
2018-09-30T18:18:39.146Z,11.20
2018-09-30T18:21:10.974Z,10.30
2018-09-30T18:23:58.326Z,9.68
2018-09-30T18:26:45.586Z,8.17
2018-09-30T18:29:33.047Z,6.57
2018-09-30T18:32:01.971Z,9.77
2018-09-30T18:34:49.453Z,7.63
2018-09-30T18:37:36.739Z,10.70
2018-09-30T18:40:24.033Z,7.03
2018-09-30T18:43:11.529Z,8.82
2018-09-30T18:45:58.784Z,7.57
2018-09-30T18:48:45.501Z,5.60
2018-09-30T18:51:33.260Z,12.10
2018-09-30T18:54:20.420Z,18.20
2018-09-30T18:57:08.071Z,14.10
2018-09-30T18:59:55.191Z,8.00
2018-09-30T19:02:42.033Z,11.37
2018-09-30T19:05:29.742Z,8.37
2018-09-30T19:08:18.197Z,7.57
2018-09-30T19:11:05.023Z,13.67
2018-09-30T19:13:52.333Z,9.90
2018-09-30T19:16:40.082Z,9.97
2018-09-30T19:19:27.460Z,10.80
2018-09-30T19:22:15.953Z,10.50
2018-09-30T19:53:23.750Z,12.30
2018-09-30T20:24:39.615Z,11.27
2018-09-30T20:27:27.201Z,10.35
2018-09-30T20:30:15.170Z,9.33
2018-09-30T20:33:02.561Z,7.80
2018-09-30T20:35:50.288Z,9.77
2018-09-30T20:41:43.907Z,11.07
2018-09-30T20:44:32.174Z,9.47
2018-09-30T20:47:21.466Z,8.63
2018-09-30T20:50:08.820Z,10.03
2018-09-30T20:52:56.416Z,9.53
2018-09-30T21:17:34.385Z,7.57
2018-09-30T21:26:35.342Z,3.67
2018-09-30T21:32:29.169Z,7.60
2018-09-30T21:35:19.695Z,3.97
2018-09-30T21:38:11.643Z,7.10
2018-09-30T21:41:10.533Z,34.03
2018-09-30T21:43:55.771Z,62.40
2018-09-30T21:46:43.252Z,26.00
2018-09-30T21:49:38.561Z,11.53
2018-09-30T21:52:26.245Z,4.70
2018-09-30T21:54:55.273Z,5.00
2018-09-30T21:57:42.779Z,4.87
2018-09-30T22:00:20.177Z,4.40
2018-09-30T22:03:08.250Z,5.10
2018-09-30T22:05:58.155Z,5.17
2018-09-30T22:11:54.029Z,4.73
2018-09-30T22:14:43.337Z,6.83
2018-09-30T22:17:30.866Z,5.03
2018-09-30T22:23:27.767Z,5.57
2018-09-30T22:28:56.574Z,12.27
2018-09-30T22:31:33.967Z,11.87
2018-09-30T22:34:21.339Z,25.60
2018-09-30T22:37:13.862Z,18.83
2018-09-30T22:40:00.742Z,14.43
2018-09-30T22:42:47.963Z,10.77
2018-09-30T22:45:35.532Z,9.77
2018-09-30T22:48:22.555Z,5.03
2018-09-30T22:50:57.168Z,6.40
2018-09-30T22:53:54.987Z,4.67
2018-09-30T22:56:29.528Z,7.37
2018-09-30T22:59:06.278Z,4.97
2018-09-30T23:01:35.018Z,5.20
2018-09-30T23:04:03.649Z,6.57
2018-09-30T23:06:32.387Z,6.60
2018-09-30T23:09:16.464Z,5.62
2018-09-30T23:11:48.023Z,4.57
2018-09-30T23:14:35.407Z,4.37
2018-09-30T23:17:04.964Z,7.63
2018-09-30T23:19:33.670Z,6.20
2018-09-30T23:22:02.622Z,6.83
2018-09-30T23:24:57.826Z,5.50
2018-09-30T23:27:36.609Z,3.90
2018-09-30T23:30:23.869Z,5.83
2018-09-30T23:33:10.897Z,3.67
2018-09-30T23:35:39.974Z,4.33
2018-09-30T23:38:08.516Z,4.20
2018-09-30T23:40:55.696Z,4.77
2018-09-30T23:43:25.199Z,4.63
2018-09-30T23:46:13.490Z,4.27
2018-09-30T23:49:00.664Z,5.50
2018-09-30T23:51:48.153Z,7.47
2018-09-30T23:54:35.313Z,4.87
2018-09-30T23:57:22.360Z,5.57
